Terminal Aerodrome Forecast
Issued by NWS Charleston, SC

Current Version | Previous Version | Text Only | Print | Product List | Glossary Off
Versions: 1 2 3 4 5 6 7 8 9 10 11 12 13 14

000
FTUS42 KCHS 011739
TAFCHS
TAF
KCHS 011739Z 0118/0218 18012G18KT P6SM SCT035
     FM020300 19014G21KT P6SM SCT030 BKN050
     FM021000 21016G23KT 5SM -RA BR BKN025
     FM021200 23018G25KT 4SM -RA BR OVC015
     FM021500 26020G28KT 6SM -RA OVC025
     FM021700 27021G29KT P6SM SCT060 BKN100=

USA.gov is the U.S. government's official web portal to all federal, state and local government web resources and services.